createdAt,value
2017-08-24T00:02:08.570Z,9.50
2017-08-24T00:04:36.097Z,10.23
2017-08-24T00:07:03.621Z,8.67
2017-08-24T00:09:31.128Z,9.00
2017-08-24T00:11:58.651Z,9.07
2017-08-24T00:14:26.191Z,9.27
2017-08-24T00:16:53.722Z,8.90
2017-08-24T00:19:21.223Z,9.13
2017-08-24T00:21:48.738Z,8.80
2017-08-24T00:24:16.245Z,9.03
2017-08-24T00:26:43.770Z,8.53
2017-08-24T00:29:11.281Z,8.60
2017-08-24T00:31:38.798Z,9.10
2017-08-24T00:34:06.303Z,9.20
2017-08-24T00:36:33.831Z,9.60
2017-08-24T00:39:01.339Z,10.70
2017-08-24T00:41:28.859Z,9.37
2017-08-24T00:43:56.359Z,9.27
2017-08-24T00:46:23.891Z,8.93
2017-08-24T00:48:51.426Z,9.43
2017-08-24T00:51:18.926Z,8.87
2017-08-24T00:53:46.439Z,8.70
2017-08-24T00:56:13.938Z,9.20
2017-08-24T00:58:41.461Z,9.20
2017-08-24T01:01:08.962Z,8.70
2017-08-24T01:03:36.479Z,8.13
2017-08-24T01:06:03.979Z,8.87
2017-08-24T01:08:31.495Z,8.27
2017-08-24T01:10:59.020Z,8.73
2017-08-24T01:13:26.552Z,8.50
2017-08-24T01:15:54.055Z,8.10
2017-08-24T01:18:21.567Z,7.20
2017-08-24T01:20:49.074Z,8.30
2017-08-24T01:23:16.591Z,8.40
2017-08-24T01:25:44.094Z,8.60
2017-08-24T01:28:11.610Z,7.50
2017-08-24T01:30:39.115Z,8.00
2017-08-24T01:33:06.640Z,8.17
2017-08-24T01:35:34.135Z,8.10
2017-08-24T01:38:01.646Z,8.37
2017-08-24T01:40:29.155Z,7.80
2017-08-24T01:42:56.674Z,7.30
2017-08-24T01:45:24.186Z,7.60
2017-08-24T01:47:51.719Z,8.43
2017-08-24T01:50:19.218Z,7.50
2017-08-24T01:52:46.769Z,8.40
2017-08-24T01:55:14.317Z,7.10
2017-08-24T01:57:41.859Z,7.10
2017-08-24T02:00:09.407Z,7.30
2017-08-24T02:02:36.927Z,6.30
2017-08-24T02:05:04.451Z,6.80
2017-08-24T02:07:31.986Z,8.27
2017-08-24T02:09:59.524Z,7.27
2017-08-24T02:12:27.178Z,7.30
2017-08-24T02:14:54.731Z,7.80
2017-08-24T02:17:22.230Z,7.23
2017-08-24T02:19:49.746Z,6.80
2017-08-24T02:22:17.242Z,7.60
2017-08-24T02:24:44.751Z,7.13
2017-08-24T02:27:12.260Z,6.80
2017-08-24T02:29:39.782Z,7.50
2017-08-24T02:32:07.282Z,7.20
2017-08-24T02:34:35.648Z,7.10
2017-08-24T02:37:03.151Z,6.03
2017-08-24T02:39:30.666Z,7.60
2017-08-24T02:41:58.164Z,6.87
2017-08-24T02:44:25.679Z,6.30
2017-08-24T02:46:53.174Z,6.73
2017-08-24T02:49:20.695Z,6.67
2017-08-24T02:51:48.199Z,7.33
2017-08-24T02:54:15.699Z,7.33
2017-08-24T02:56:43.212Z,7.10
2017-08-24T02:59:10.720Z,6.40
2017-08-24T03:01:38.235Z,7.03
2017-08-24T03:04:05.734Z,7.23
2017-08-24T03:06:33.255Z,7.30
2017-08-24T03:09:00.754Z,5.90
2017-08-24T03:11:28.271Z,6.10
2017-08-24T03:13:55.774Z,7.47
2017-08-24T03:16:23.294Z,7.47
2017-08-24T03:18:50.799Z,7.00
2017-08-24T03:21:18.314Z,6.57
2017-08-24T03:23:45.873Z,6.73
2017-08-24T03:26:13.416Z,6.53
2017-08-24T03:28:40.930Z,6.40
2017-08-24T03:31:08.459Z,6.60
2017-08-24T03:33:35.955Z,6.37
2017-08-24T03:36:03.471Z,6.57
2017-08-24T03:38:30.974Z,6.63
2017-08-24T03:40:58.494Z,7.27
2017-08-24T03:43:25.991Z,6.50
2017-08-24T03:45:54.283Z,5.83
2017-08-24T03:48:21.791Z,6.80
2017-08-24T03:50:49.302Z,6.47
2017-08-24T03:53:17.571Z,7.23
2017-08-24T03:55:45.086Z,6.73
2017-08-24T03:58:12.594Z,7.00
2017-08-24T04:00:40.091Z,6.17
2017-08-24T04:03:07.607Z,5.70
2017-08-24T04:05:35.109Z,7.03
2017-08-24T04:08:02.635Z,7.30
2017-08-24T04:10:30.142Z,6.37
2017-08-24T04:12:57.660Z,7.00
2017-08-24T04:15:25.162Z,7.10
2017-08-24T04:17:52.687Z,6.53
2017-08-24T04:20:20.187Z,6.50
2017-08-24T04:22:47.704Z,6.63
2017-08-24T04:25:15.199Z,6.63
2017-08-24T04:27:42.711Z,7.03
2017-08-24T04:30:10.219Z,7.07
2017-08-24T04:32:38.499Z,6.83
2017-08-24T04:35:05.994Z,7.00
2017-08-24T04:37:33.516Z,5.43
2017-08-24T04:40:01.011Z,6.90
2017-08-24T04:42:28.544Z,7.10
2017-08-24T04:44:56.047Z,5.97
2017-08-24T04:47:23.559Z,5.07
2017-08-24T04:49:51.058Z,6.10
2017-08-24T04:52:18.584Z,5.87
2017-08-24T04:54:46.100Z,6.40
2017-08-24T04:57:13.645Z,6.10
2017-08-24T04:59:41.143Z,6.10
2017-08-24T05:02:08.639Z,6.20
2017-08-24T05:04:36.150Z,5.90
2017-08-24T05:07:03.650Z,5.87
2017-08-24T05:09:31.349Z,5.20
2017-08-24T05:11:58.852Z,6.27
2017-08-24T05:14:27.135Z,6.83
2017-08-24T05:16:55.407Z,8.60
2017-08-24T05:19:23.206Z,6.30
2017-08-24T05:21:50.700Z,5.90
2017-08-24T05:24:18.210Z,5.60
2017-08-24T05:26:45.715Z,7.20
2017-08-24T05:29:13.239Z,6.50
2017-08-24T05:31:40.740Z,8.00
2017-08-24T05:34:08.254Z,7.40
2017-08-24T05:36:35.755Z,7.67
2017-08-24T05:39:03.284Z,8.90
2017-08-24T05:41:30.787Z,8.10
2017-08-24T05:43:58.303Z,7.17
2017-08-24T05:46:25.803Z,7.30
2017-08-24T05:48:53.319Z,7.17
2017-08-24T05:51:20.835Z,8.33
2017-08-24T05:53:48.391Z,5.50
2017-08-24T05:56:16.702Z,6.13
2017-08-24T05:58:44.243Z,6.97
2017-08-24T06:01:11.792Z,6.57
2017-08-24T06:03:39.335Z,7.60
2017-08-24T06:06:06.865Z,7.00
2017-08-24T06:08:34.403Z,7.67
2017-08-24T06:11:02.095Z,6.57
2017-08-24T06:13:30.382Z,7.33
2017-08-24T06:15:57.913Z,6.67
2017-08-24T06:18:25.415Z,6.27
2017-08-24T06:20:53.695Z,7.40
2017-08-24T06:23:21.314Z,7.20
2017-08-24T06:25:48.843Z,6.50
2017-08-24T06:28:16.371Z,8.23
2017-08-24T06:30:44.668Z,6.70
2017-08-24T06:33:12.219Z,6.80
2017-08-24T06:35:39.731Z,5.90
2017-08-24T06:38:07.236Z,6.73
2017-08-24T06:40:35.056Z,6.23
2017-08-24T06:43:02.587Z,6.43
2017-08-24T06:45:30.187Z,6.33
2017-08-24T06:47:57.689Z,5.90
2017-08-24T06:50:25.211Z,6.27
2017-08-24T06:52:53.475Z,5.63
2017-08-24T06:55:20.991Z,5.60
2017-08-24T06:57:48.491Z,5.80
2017-08-24T07:00:16.007Z,5.73
2017-08-24T07:02:43.511Z,5.57
2017-08-24T07:05:11.006Z,5.37
2017-08-24T07:07:38.519Z,5.60
2017-08-24T07:10:06.024Z,5.00
2017-08-24T07:12:33.553Z,5.27
2017-08-24T07:15:01.050Z,5.57
2017-08-24T07:17:28.559Z,6.20
2017-08-24T07:19:56.071Z,5.80
2017-08-24T07:22:23.587Z,4.80
2017-08-24T07:24:51.094Z,5.27
2017-08-24T07:27:18.608Z,5.13
2017-08-24T07:29:46.112Z,5.00
2017-08-24T07:32:13.628Z,4.53
2017-08-24T07:34:41.127Z,4.83
2017-08-24T07:37:08.642Z,4.83
2017-08-24T07:39:36.147Z,5.03
2017-08-24T07:42:03.663Z,4.90
2017-08-24T07:44:31.166Z,4.30
2017-08-24T07:46:58.687Z,4.77
2017-08-24T07:49:26.187Z,4.30
2017-08-24T07:51:53.706Z,4.90
2017-08-24T07:54:21.206Z,4.60
2017-08-24T07:56:48.728Z,4.60
2017-08-24T07:59:16.229Z,4.70
2017-08-24T08:01:43.748Z,5.50
2017-08-24T08:04:11.246Z,5.03
2017-08-24T08:06:38.747Z,4.83
2017-08-24T08:09:06.265Z,4.97
2017-08-24T08:11:33.763Z,5.60
2017-08-24T08:14:01.283Z,5.03
2017-08-24T08:16:28.798Z,4.70
2017-08-24T08:18:56.323Z,4.90
2017-08-24T08:21:23.818Z,5.27
2017-08-24T08:23:51.335Z,4.80
2017-08-24T08:26:19.605Z,5.10
2017-08-24T08:28:47.154Z,5.40
2017-08-24T08:31:14.896Z,5.50
2017-08-24T08:33:42.414Z,5.00
2017-08-24T08:36:09.958Z,5.20
2017-08-24T08:38:37.506Z,5.90
2017-08-24T08:41:05.007Z,5.50
2017-08-24T08:43:32.523Z,5.50
2017-08-24T08:46:00.026Z,5.60
2017-08-24T08:48:30.243Z,5.20
2017-08-24T08:51:01.079Z,6.33
2017-08-24T08:53:31.902Z,5.70
2017-08-24T08:56:04.300Z,5.77
2017-08-24T08:58:33.372Z,6.30
2017-08-24T09:01:01.357Z,6.07
2017-08-24T09:03:28.883Z,5.60
2017-08-24T09:05:56.407Z,6.70
2017-08-24T09:08:23.931Z,6.40
2017-08-24T09:10:51.460Z,6.03
2017-08-24T09:13:18.995Z,7.20
2017-08-24T09:15:46.513Z,7.20
2017-08-24T09:18:14.031Z,7.30
2017-08-24T09:20:41.567Z,6.17
2017-08-24T09:23:09.081Z,6.07
2017-08-24T09:25:36.615Z,6.77
2017-08-24T09:28:04.200Z,6.60
2017-08-24T09:30:31.723Z,6.93
2017-08-24T09:32:59.990Z,6.47
2017-08-24T09:35:27.512Z,6.93
2017-08-24T09:37:55.021Z,6.97
2017-08-24T09:40:22.546Z,7.07
2017-08-24T09:42:50.047Z,7.40
2017-08-24T09:45:17.568Z,7.20
2017-08-24T09:47:45.069Z,7.07
2017-08-24T09:50:12.602Z,7.43
2017-08-24T09:52:40.111Z,7.20
2017-08-24T09:55:07.627Z,7.80
2017-08-24T09:57:35.132Z,7.30
2017-08-24T10:00:02.646Z,7.33
2017-08-24T10:02:30.156Z,7.60
2017-08-24T10:04:57.679Z,6.63
2017-08-24T10:07:25.187Z,7.10
2017-08-24T10:09:52.707Z,6.90
2017-08-24T10:12:20.220Z,7.30
2017-08-24T10:14:47.761Z,6.30
2017-08-24T10:17:15.266Z,7.30
2017-08-24T10:19:42.775Z,7.50
2017-08-24T10:22:10.295Z,7.70
2017-08-24T10:24:37.795Z,7.10
2017-08-24T10:27:05.333Z,7.60
2017-08-24T10:29:32.947Z,8.03
2017-08-24T10:32:00.414Z,7.50
2017-08-24T10:34:27.951Z,8.13
2017-08-24T10:36:55.491Z,7.83
2017-08-24T10:39:23.021Z,7.40
2017-08-24T10:41:50.551Z,7.43
2017-08-24T10:44:18.071Z,8.20
2017-08-24T10:46:45.609Z,7.57
2017-08-24T10:49:13.124Z,6.80
2017-08-24T10:51:40.651Z,8.03
2017-08-24T10:54:08.159Z,7.43
2017-08-24T10:56:35.695Z,6.97
2017-08-24T10:59:03.211Z,7.27
2017-08-24T11:01:30.731Z,7.90
2017-08-24T11:03:58.234Z,7.20
2017-08-24T11:06:25.750Z,7.17
2017-08-24T11:08:53.252Z,7.30
2017-08-24T11:11:20.799Z,7.50
2017-08-24T11:13:48.291Z,6.73
2017-08-24T11:16:15.841Z,7.67
2017-08-24T11:18:43.344Z,7.30
2017-08-24T11:21:10.851Z,7.83
2017-08-24T11:23:38.377Z,7.57
2017-08-24T11:26:05.882Z,7.83
2017-08-24T11:28:33.408Z,8.03
2017-08-24T11:31:00.916Z,7.47
2017-08-24T11:33:28.439Z,7.63
2017-08-24T11:35:55.943Z,7.13
2017-08-24T11:38:23.471Z,7.17
2017-08-24T11:40:50.997Z,7.17
2017-08-24T11:43:18.516Z,7.40
2017-08-24T11:45:46.026Z,7.00
2017-08-24T11:48:13.543Z,7.13
2017-08-24T11:50:41.047Z,7.10
2017-08-24T11:53:08.562Z,6.77
2017-08-24T11:55:36.066Z,6.60
2017-08-24T11:58:03.595Z,6.93
2017-08-24T12:00:31.095Z,7.00
2017-08-24T12:02:58.628Z,7.47
2017-08-24T12:05:26.152Z,7.13
2017-08-24T12:07:53.709Z,6.30
2017-08-24T12:10:21.243Z,7.03
2017-08-24T12:12:48.799Z,6.60
2017-08-24T12:15:16.324Z,6.10
2017-08-24T12:17:43.863Z,6.40
2017-08-24T12:20:11.375Z,6.40
2017-08-24T12:22:38.885Z,6.87
2017-08-24T12:25:06.462Z,5.57
2017-08-24T12:27:34.029Z,6.33
2017-08-24T12:30:01.561Z,6.70
2017-08-24T12:32:29.067Z,6.00
2017-08-24T12:34:57.365Z,5.80
2017-08-24T12:37:25.656Z,6.83
2017-08-24T12:39:53.188Z,5.07
2017-08-24T12:42:20.695Z,6.20
2017-08-24T12:44:48.221Z,6.13
2017-08-24T12:47:15.727Z,5.53
2017-08-24T12:49:43.247Z,5.63
2017-08-24T12:52:10.751Z,4.67
2017-08-24T12:54:38.270Z,5.30
2017-08-24T12:57:05.779Z,4.80
2017-08-24T12:59:33.299Z,4.83
2017-08-24T13:02:00.798Z,4.67
2017-08-24T13:04:28.315Z,4.87
2017-08-24T13:06:55.818Z,5.00
2017-08-24T13:09:23.342Z,5.10
2017-08-24T13:11:50.843Z,4.97
2017-08-24T13:14:18.360Z,5.00
2017-08-24T13:16:45.859Z,5.10
2017-08-24T13:19:13.391Z,5.20
2017-08-24T13:21:40.886Z,5.17
2017-08-24T13:24:08.391Z,5.17
2017-08-24T13:26:35.912Z,4.83
2017-08-24T13:29:03.415Z,5.63
2017-08-24T13:31:30.931Z,4.80
2017-08-24T13:33:58.435Z,4.80
2017-08-24T13:36:25.951Z,5.27
2017-08-24T13:38:53.447Z,5.20
2017-08-24T13:41:21.027Z,6.43
2017-08-24T13:43:48.582Z,6.60
2017-08-24T13:46:16.166Z,6.40
2017-08-24T13:48:43.699Z,5.60
2017-08-24T13:51:11.228Z,5.10
2017-08-24T13:53:38.775Z,6.30
2017-08-24T13:56:06.295Z,6.20
2017-08-24T13:58:33.806Z,5.93
2017-08-24T14:01:01.326Z,5.37
2017-08-24T14:03:29.592Z,5.13
2017-08-24T14:05:57.374Z,5.93
2017-08-24T14:08:24.871Z,5.90
2017-08-24T14:10:52.387Z,5.43
2017-08-24T14:13:19.883Z,6.57
2017-08-24T14:15:47.400Z,5.67
2017-08-24T14:18:14.924Z,7.20
2017-08-24T14:20:42.542Z,6.70
2017-08-24T14:23:10.048Z,6.50
2017-08-24T14:25:37.546Z,5.57
2017-08-24T14:28:05.835Z,5.10
2017-08-24T14:30:33.372Z,6.10
2017-08-24T14:33:00.887Z,6.00
2017-08-24T14:35:28.391Z,6.10
2017-08-24T14:37:55.923Z,5.90
2017-08-24T14:40:23.420Z,6.70
2017-08-24T14:42:51.031Z,6.10
2017-08-24T14:45:18.524Z,5.90
2017-08-24T14:47:46.036Z,5.30
2017-08-24T14:50:13.543Z,5.80
2017-08-24T14:52:41.056Z,5.83
2017-08-24T14:57:42.555Z,6.27
2017-08-24T15:00:10.055Z,6.03
2017-08-24T15:02:37.570Z,6.57
2017-08-24T15:05:05.076Z,5.70
2017-08-24T15:07:32.593Z,5.40
2017-08-24T15:10:00.095Z,6.03
2017-08-24T15:12:28.418Z,6.77
2017-08-24T15:14:56.687Z,5.87
2017-08-24T15:17:24.220Z,6.00
2017-08-24T15:19:51.726Z,5.87
2017-08-24T15:22:20.011Z,6.50
2017-08-24T15:24:47.515Z,5.93
2017-08-24T15:27:15.038Z,6.60
2017-08-24T15:29:42.543Z,5.50
2017-08-24T15:32:10.814Z,6.17
2017-08-24T15:34:38.335Z,6.13
2017-08-24T15:37:05.838Z,5.80
2017-08-24T15:39:33.356Z,6.70
2017-08-24T15:42:00.854Z,6.53
2017-08-24T15:44:28.370Z,5.80
2017-08-24T15:46:55.871Z,6.10
2017-08-24T15:49:24.163Z,6.30
2017-08-24T15:51:51.664Z,5.60
2017-08-24T15:54:19.187Z,5.77
2017-08-24T15:56:46.687Z,6.70
2017-08-24T15:59:14.208Z,5.63
2017-08-24T16:01:41.702Z,5.97
2017-08-24T16:04:09.215Z,5.43
2017-08-24T16:06:36.710Z,6.33
2017-08-24T16:09:04.226Z,5.83
2017-08-24T16:11:31.730Z,5.20
2017-08-24T16:13:59.242Z,5.80
2017-08-24T16:16:26.744Z,6.20
2017-08-24T16:18:54.258Z,6.70
2017-08-24T16:21:21.760Z,6.90
2017-08-24T16:23:49.274Z,5.93
2017-08-24T16:26:16.780Z,5.60
2017-08-24T16:28:44.315Z,5.47
2017-08-24T16:31:11.812Z,6.17
2017-08-24T16:33:39.315Z,5.93
2017-08-24T16:36:06.826Z,5.80
2017-08-24T16:38:34.319Z,5.83
2017-08-24T16:41:01.839Z,6.27
2017-08-24T16:43:29.400Z,6.60
2017-08-24T16:45:56.944Z,6.10
2017-08-24T16:48:24.447Z,6.03
2017-08-24T16:50:52.750Z,5.57
2017-08-24T16:53:20.266Z,6.27
2017-08-24T16:55:47.791Z,6.30
2017-08-24T16:58:15.290Z,6.10
2017-08-24T17:00:42.814Z,6.00
2017-08-24T17:03:10.315Z,6.23
2017-08-24T17:05:38.695Z,6.63
2017-08-24T17:08:06.982Z,6.47
2017-08-24T17:10:34.502Z,6.60
2017-08-24T17:13:02.013Z,6.97
2017-08-24T17:15:29.535Z,6.87
2017-08-24T17:17:57.039Z,5.90
2017-08-24T17:20:24.555Z,6.80
2017-08-24T17:22:52.822Z,6.93
2017-08-24T17:25:20.339Z,7.17
2017-08-24T17:27:47.841Z,7.00
2017-08-24T17:30:15.370Z,6.97
2017-08-24T17:32:42.862Z,7.00
2017-08-24T17:35:10.362Z,7.67
2017-08-24T17:37:37.879Z,8.03
2017-08-24T17:40:05.382Z,6.60
2017-08-24T17:42:32.898Z,7.17
2017-08-24T17:45:00.405Z,7.30
2017-08-24T17:47:27.941Z,8.13
2017-08-24T17:49:55.448Z,7.20
2017-08-24T17:52:22.960Z,7.30
2017-08-24T17:54:50.458Z,7.47
2017-08-24T17:57:17.983Z,7.73
2017-08-24T17:59:45.479Z,7.53
2017-08-24T18:02:13.009Z,7.93
2017-08-24T18:04:40.511Z,7.53
2017-08-24T18:07:08.795Z,8.30
2017-08-24T18:09:36.294Z,7.80
2017-08-24T18:12:03.811Z,8.17
2017-08-24T18:14:31.330Z,8.20
2017-08-24T18:16:58.981Z,8.07
2017-08-24T18:19:26.567Z,8.10
2017-08-24T18:21:54.113Z,7.80
2017-08-24T18:24:21.628Z,7.80
2017-08-24T18:26:49.171Z,6.30
2017-08-24T18:29:16.675Z,5.80
2017-08-24T18:31:44.212Z,5.30
2017-08-24T18:34:11.712Z,5.13
2017-08-24T18:36:39.687Z,4.93
2017-08-24T18:39:07.199Z,4.67
2017-08-24T18:41:34.698Z,4.40
2017-08-24T18:44:02.212Z,3.70
2017-08-24T18:46:29.723Z,3.70
2017-08-24T18:48:57.272Z,4.97
2017-08-24T18:51:24.760Z,4.90
2017-08-24T18:53:52.282Z,5.17
2017-08-24T18:56:19.782Z,4.27
2017-08-24T18:58:47.295Z,4.87
2017-08-24T19:01:14.792Z,4.70
2017-08-24T19:03:42.310Z,4.27
2017-08-24T19:06:09.807Z,4.80
2017-08-24T19:08:37.327Z,5.33
2017-08-24T19:11:04.832Z,5.73
2017-08-24T19:13:32.359Z,6.00
2017-08-24T19:15:59.854Z,5.63
2017-08-24T19:18:27.367Z,4.60
2017-08-24T19:20:54.867Z,4.63
2017-08-24T19:23:22.391Z,4.13
2017-08-24T19:25:49.894Z,4.40
2017-08-24T19:28:17.406Z,3.60
2017-08-24T19:30:44.922Z,4.73
2017-08-24T19:33:12.470Z,4.07
2017-08-24T19:35:39.986Z,3.77
2017-08-24T19:38:07.531Z,3.53
2017-08-24T19:40:35.944Z,4.00
2017-08-24T19:43:03.439Z,3.83
2017-08-24T19:45:30.955Z,3.70
2017-08-24T19:47:58.463Z,3.50
2017-08-24T19:50:25.978Z,4.50
2017-08-24T19:52:54.248Z,3.87
2017-08-24T19:55:21.773Z,3.80
2017-08-24T19:57:49.267Z,3.43
2017-08-24T20:00:16.783Z,3.60
2017-08-24T20:02:44.275Z,3.27
2017-08-24T20:05:11.805Z,3.77
2017-08-24T20:07:39.312Z,4.30
2017-08-24T20:10:07.652Z,3.50
2017-08-24T20:12:35.155Z,3.47
2017-08-24T20:15:02.710Z,4.07
2017-08-24T20:17:30.209Z,3.53
2017-08-24T20:19:57.724Z,3.20
2017-08-24T20:22:25.997Z,3.70
2017-08-24T20:24:53.544Z,2.70
2017-08-24T20:27:21.850Z,3.70
2017-08-24T20:29:49.435Z,3.50
2017-08-24T20:32:16.967Z,3.37
2017-08-24T20:34:44.495Z,3.60
2017-08-24T20:37:12.783Z,2.83
2017-08-24T20:39:40.284Z,3.53
2017-08-24T20:42:07.799Z,3.20
2017-08-24T20:44:35.295Z,3.40
2017-08-24T20:47:02.815Z,3.10
2017-08-24T20:49:30.547Z,3.70
2017-08-24T20:51:58.064Z,3.17
2017-08-24T20:54:25.562Z,3.20
2017-08-24T20:56:53.075Z,2.83
2017-08-24T20:59:20.571Z,3.07
2017-08-24T21:01:48.123Z,2.90
2017-08-24T21:04:15.649Z,3.30
2017-08-24T21:06:43.167Z,2.90
2017-08-24T21:09:10.668Z,2.83
2017-08-24T21:11:38.183Z,2.70
2017-08-24T21:14:05.682Z,3.23
2017-08-24T21:16:33.200Z,2.87
2017-08-24T21:19:00.707Z,3.23
2017-08-24T21:21:28.218Z,3.40
2017-08-24T21:23:55.722Z,3.17
2017-08-24T21:26:23.234Z,3.23
2017-08-24T21:28:50.735Z,3.37
2017-08-24T21:31:18.264Z,2.83
2017-08-24T21:33:45.763Z,2.97
2017-08-24T21:36:13.259Z,3.27
2017-08-24T21:38:40.775Z,3.30
2017-08-24T21:41:08.267Z,3.00
2017-08-24T21:43:35.786Z,2.93
2017-08-24T21:46:03.287Z,2.77
2017-08-24T21:48:30.796Z,3.17
2017-08-24T21:50:58.301Z,2.80
2017-08-24T21:53:25.815Z,2.77
2017-08-24T21:55:53.330Z,2.77
2017-08-24T21:58:21.615Z,2.90
2017-08-24T22:00:49.879Z,3.27
2017-08-24T22:03:17.395Z,2.83
2017-08-24T22:05:44.890Z,2.67
2017-08-24T22:08:12.408Z,3.17
2017-08-24T22:10:39.911Z,2.90
2017-08-24T22:13:07.422Z,2.40
2017-08-24T22:15:34.914Z,2.77
2017-08-24T22:18:02.427Z,2.90
2017-08-24T22:20:29.936Z,2.77
2017-08-24T22:22:57.448Z,3.33
2017-08-24T22:25:24.951Z,2.70
2017-08-24T22:27:52.465Z,2.90
2017-08-24T22:30:19.963Z,2.80
2017-08-24T22:32:47.487Z,2.60
2017-08-24T22:35:14.985Z,2.43
2017-08-24T22:37:42.484Z,2.10
2017-08-24T22:40:10.004Z,2.30
2017-08-24T22:42:37.503Z,3.33
2017-08-24T22:45:05.023Z,2.80
2017-08-24T22:47:32.522Z,2.90
2017-08-24T22:50:00.051Z,2.70
2017-08-24T22:52:27.559Z,3.17
2017-08-24T22:55:00.827Z,3.20
2017-08-24T23:00:37.689Z,2.87
2017-08-24T23:03:10.843Z,3.17
2017-08-24T23:05:38.359Z,3.50
2017-08-24T23:08:05.856Z,2.80
2017-08-24T23:10:33.371Z,3.30
2017-08-24T23:13:01.639Z,3.40
2017-08-24T23:15:29.155Z,3.40
2017-08-24T23:17:56.646Z,3.10
2017-08-24T23:20:24.162Z,3.43
2017-08-24T23:22:51.670Z,3.37
2017-08-24T23:25:19.187Z,3.30
2017-08-24T23:27:46.683Z,3.30
2017-08-24T23:30:14.199Z,3.60
2017-08-24T23:32:41.703Z,2.83
2017-08-24T23:35:09.214Z,3.17
2017-08-24T23:37:36.706Z,3.13
2017-08-24T23:40:04.219Z,3.77
2017-08-24T23:42:31.715Z,3.70
2017-08-24T23:44:59.239Z,3.50
2017-08-24T23:47:26.734Z,3.63
2017-08-24T23:49:54.231Z,4.20
2017-08-24T23:52:21.752Z,3.60
2017-08-24T23:54:49.251Z,3.77
2017-08-24T23:57:16.762Z,3.30
2017-08-24T23:59:44.267Z,2.83
